Briefing drone pour Aix-les-bains

Rechercher une autre localisation

Conditions de vol :


Nous sommes le : Samedi 28 mai 2022
Il est 19:49 UTC (21:49 LT)

Lever de soleil : 03:26 UTC (05:26 LT)
Coucher de soleil : 19:40 UTC (21:40 LT)

Météo

L'essentiel des conditions de vol

VIGILANCE MÉTÉO FRANCE - Savoie (73)
Pas de vigilances particulieres
METAR de LFLB
LFLB 281930Z AUTO 34009KT CAVOK 20/07 Q1012 NOSIG

Date d'émission: 28/05/2022
Heure d'émission: 19:30 UTC
Vent: 340° pour 9 KT (17 km/h)
Visibilité horizontale: > 10 km
Plafond : Plafond et visibilité OK (CAVOK)
Température: 20 °C
Point de rosée: 7 °C
Humidité: 43%
Pression (QNH): 1012 hPa
Conditions: Pas de changement dans les 2 heures (NOSIG)
TAF de LFLB
LFLB 281900Z 2819/2915 CNL

Conditions prévues :

Heure d'émission : Bulletin éffectué le 28 à 19:00 UTC
Prévision : Valide du 28 a 19:00 UTC au 29 a 15:00 UTC
Nuages : à 0ft (0 m)
WEBCAM POUR AIX-LES-BAINS

Réglementation

Voler en sécurité

CARTES AERONAUTIQUE 1/500.000
CARTES VAC (LFLB)
SUP AIP




Chargement des AIP...
NOTAM (AIX-LES-BAINS + Terrain à proximité / FIR )




Chargement des NOTAMS...
CONTACT PREFECTURE 73


Avertissement : Les données mises à disposition sont indicatives. Oxygène Drone ne pourra être tenu responsable de dégâts causés aux biens et aux personnes.